Etusivu
METAR-TAF:

METAR-TAF

Lentoasemat :

Karachi, Pakistan

Leveyspiiri: 24-54N, Pituuspiiri: 067-08E, korkeus merenpinnasta: 21 m

Tämänhetkinen sää

Tämä raportti tehtiin 30 minuuttia sitten, kello 09.25 UTC
Tuuli 15 kn lännestä
Lämpötila 33°C
Kosteus 36%
Ilmanpaine 1008 hPa
Näkyvyys: 6000 m

METAR: OPKC 220925Z 27015KT 6000 NSC 33/16 Q1008 NOSIG

Aika: 14:55 (09:55 UTC)

Sääennuste

Tämä raportti tehtiin 5 tuntia ja 55 minuuttia sitten, kello 04.00 UTC
Ennuste voimassa 22. päivästä klo 06 UTC - 23. päivään klo 12 UTC
Tuuli 8 kn lounaasta puuskistuen 18 kn:hen
Näkyvyys: 6000 m
From UTC
Tuuli 8 kn lännestä
Näkyvyys: 4000 m
Muutamia pilviä 2000 ft:n korkeudessa
savua
Ajoittain
23. päivästä klo 01 UTC - 23. päivään klo 05 UTC
Tuuli 3 kn eri suunnista
Näkyvyys: 2500 m
utua

TAF: OPKC 220400Z 2206/2312 23008G18KT 6000 NSC FM 221900 26008KT 4000 FU FEW020 TEMPO 2301/2305 VRB03KT 2500 BR NSC

Säähavainnot ja -ennusteet yli 4000 lentoasemalta (METAR- ja TAF-raportit).

Käytössä olevat sääasemat on merkitty karttaan keltaisilla ja punaisilla pisteillä.

Aseta hiiri pisteen päälle nähdäksesi sääaseman nimen.

Klikkaa sitten nähdäksesi säähavainnot ja -ennusteet.

Kartan vaihtaminen: klikkaa mustalla rastilla varustettuja vihreitä pisteitä, niin voit zoomata sisään; viivalla varustettua vihreää pistettä, niin voit zoomata ulos tai vihreitä nuolia, niin pääset viereisille kartoille.


METAR-TAF: